sensor_id;sensor_type;location;lat;lon;timestamp;pressure;altitude;pressure_sealevel;temperature;humidity
80558;BME280;69901;43.524;-5.636;2023-12-20T00:00:02;103205.28;;;12.82;100.00
80558;BME280;69901;43.524;-5.636;2023-12-20T00:02:28;103223.78;;;12.86;100.00
80558;BME280;69901;43.524;-5.636;2023-12-20T00:04:53;103209.91;;;12.81;100.00
80558;BME280;69901;43.524;-5.636;2023-12-20T00:07:19;103223.97;;;12.78;100.00
80558;BME280;69901;43.524;-5.636;2023-12-20T00:09:44;103221.59;;;12.75;100.00
80558;BME280;69901;43.524;-5.636;2023-12-20T00:12:10;103221.38;;;12.70;100.00
80558;BME280;69901;43.524;-5.636;2023-12-20T00:14:35;103227.03;;;12.68;100.00
80558;BME280;69901;43.524;-5.636;2023-12-20T00:17:01;103238.94;;;12.61;100.00
80558;BME280;69901;43.524;-5.636;2023-12-20T00:19:26;103227.56;;;12.57;100.00
80558;BME280;69901;43.524;-5.636;2023-12-20T00:21:52;103238.94;;;12.61;100.00
80558;BME280;69901;43.524;-5.636;2023-12-20T00:24:17;103240.38;;;12.57;100.00
80558;BME280;69901;43.524;-5.636;2023-12-20T00:26:43;103250.72;;;12.61;100.00
80558;BME280;69901;43.524;-5.636;2023-12-20T00:29:08;103236.88;;;12.63;100.00
80558;BME280;69901;43.524;-5.636;2023-12-20T00:31:34;103244.22;;;12.62;100.00
80558;BME280;69901;43.524;-5.636;2023-12-20T00:33:59;103257.03;;;12.62;100.00
80558;BME280;69901;43.524;-5.636;2023-12-20T00:36:25;103244.50;;;12.67;100.00
80558;BME280;69901;43.524;-5.636;2023-12-20T00:38:51;103240.78;;;12.54;100.00
80558;BME280;69901;43.524;-5.636;2023-12-20T00:41:17;103246.78;;;12.64;100.00
80558;BME280;69901;43.524;-5.636;2023-12-20T00:43:42;103240.69;;;12.68;100.00
80558;BME280;69901;43.524;-5.636;2023-12-20T00:46:08;103245.56;;;12.73;100.00
80558;BME280;69901;43.524;-5.636;2023-12-20T00:48:33;103238.13;;;12.60;100.00
80558;BME280;69901;43.524;-5.636;2023-12-20T00:50:59;103248.25;;;12.66;100.00
80558;BME280;69901;43.524;-5.636;2023-12-20T00:53:24;103243.25;;;12.70;100.00
80558;BME280;69901;43.524;-5.636;2023-12-20T00:55:50;103239.03;;;12.67;100.00
80558;BME280;69901;43.524;-5.636;2023-12-20T00:58:15;103240.69;;;12.68;100.00
80558;BME280;69901;43.524;-5.636;2023-12-20T01:00:41;103243.38;;;12.62;100.00
80558;BME280;69901;43.524;-5.636;2023-12-20T01:03:08;103254.81;;;12.72;100.00
80558;BME280;69901;43.524;-5.636;2023-12-20T01:05:33;103263.03;;;12.51;100.00
80558;BME280;69901;43.524;-5.636;2023-12-20T01:07:59;103256.63;;;12.37;100.00
80558;BME280;69901;43.524;-5.636;2023-12-20T01:10:25;103259.16;;;12.17;100.00
80558;BME280;69901;43.524;-5.636;2023-12-20T01:12:53;103262.66;;;12.11;100.00
80558;BME280;69901;43.524;-5.636;2023-12-20T01:15:19;103259.91;;;11.90;100.00
80558;BME280;69901;43.524;-5.636;2023-12-20T01:17:44;103272.72;;;11.90;100.00
80558;BME280;69901;43.524;-5.636;2023-12-20T01:20:10;103287.09;;;11.98;100.00
80558;BME280;69901;43.524;-5.636;2023-12-20T01:22:35;103273.44;;;11.98;100.00
80558;BME280;69901;43.524;-5.636;2023-12-20T01:25:01;103277.22;;;11.97;100.00
80558;BME280;69901;43.524;-5.636;2023-12-20T01:27:28;103280.78;;;11.98;100.00
80558;BME280;69901;43.524;-5.636;2023-12-20T01:29:53;103281.25;;;12.01;100.00
80558;BME280;69901;43.524;-5.636;2023-12-20T01:32:19;103287.81;;;12.07;100.00
80558;BME280;69901;43.524;-5.636;2023-12-20T01:34:45;103289.19;;;12.17;100.00
80558;BME280;69901;43.524;-5.636;2023-12-20T01:37:10;103288.69;;;11.93;100.00
80558;BME280;69901;43.524;-5.636;2023-12-20T01:39:35;103299.66;;;11.78;100.00
80558;BME280;69901;43.524;-5.636;2023-12-20T01:42:01;103300.97;;;11.82;100.00
80558;BME280;69901;43.524;-5.636;2023-12-20T01:44:27;103309.91;;;11.76;100.00
80558;BME280;69901;43.524;-5.636;2023-12-20T01:46:53;103300.66;;;11.77;100.00
80558;BME280;69901;43.524;-5.636;2023-12-20T01:49:18;103296.75;;;11.79;100.00
80558;BME280;69901;43.524;-5.636;2023-12-20T01:51:44;103301.88;;;11.89;100.00
80558;BME280;69901;43.524;-5.636;2023-12-20T01:54:10;103296.44;;;11.89;100.00
80558;BME280;69901;43.524;-5.636;2023-12-20T01:56:36;103299.13;;;12.04;100.00
80558;BME280;69901;43.524;-5.636;2023-12-20T01:59:02;103287.81;;;12.07;100.00
80558;BME280;69901;43.524;-5.636;2023-12-20T02:01:29;103290.28;;;12.02;100.00
80558;BME280;69901;43.524;-5.636;2023-12-20T02:03:56;103286.72;;;12.01;100.00
80558;BME280;69901;43.524;-5.636;2023-12-20T02:06:23;103294.47;;;12.19;100.00
80558;BME280;69901;43.524;-5.636;2023-12-20T02:08:49;103305.97;;;12.36;100.00
80558;BME280;69901;43.524;-5.636;2023-12-20T02:11:15;103298.88;;;12.41;100.00
80558;BME280;69901;43.524;-5.636;2023-12-20T02:13:41;103300.09;;;12.39;100.00
80558;BME280;69901;43.524;-5.636;2023-12-20T02:16:06;103295.44;;;12.33;100.00
80558;BME280;69901;43.524;-5.636;2023-12-20T02:18:33;103298.69;;;12.21;100.00
80558;BME280;69901;43.524;-5.636;2023-12-20T02:20:58;103295.31;;;12.19;100.00
80558;BME280;69901;43.524;-5.636;2023-12-20T02:23:24;103292.81;;;12.24;100.00
80558;BME280;69901;43.524;-5.636;2023-12-20T02:25:49;103311.22;;;12.16;100.00
80558;BME280;69901;43.524;-5.636;2023-12-20T02:28:15;103307.19;;;12.12;100.00
80558;BME280;69901;43.524;-5.636;2023-12-20T02:30:41;103341.00;;;11.96;100.00
80558;BME280;69901;43.524;-5.636;2023-12-20T02:33:08;103342.91;;;11.81;100.00
80558;BME280;69901;43.524;-5.636;2023-12-20T02:35:36;103335.88;;;11.72;100.00
80558;BME280;69901;43.524;-5.636;2023-12-20T02:38:02;103332.84;;;11.67;100.00
80558;BME280;69901;43.524;-5.636;2023-12-20T02:40:28;103334.66;;;11.74;100.00
80558;BME280;69901;43.524;-5.636;2023-12-20T02:42:53;103341.81;;;11.75;100.00
80558;BME280;69901;43.524;-5.636;2023-12-20T02:45:20;103338.53;;;11.80;100.00
80558;BME280;69901;43.524;-5.636;2023-12-20T02:47:45;103348.59;;;11.79;100.00
80558;BME280;69901;43.524;-5.636;2023-12-20T02:50:10;103347.81;;;11.86;100.00
80558;BME280;69901;43.524;-5.636;2023-12-20T02:52:36;103352.16;;;11.95;100.00
80558;BME280;69901;43.524;-5.636;2023-12-20T02:55:02;103349.19;;;11.96;100.00
80558;BME280;69901;43.524;-5.636;2023-12-20T02:57:27;103355.50;;;11.97;100.00
80558;BME280;69901;43.524;-5.636;2023-12-20T02:59:53;103358.16;;;11.90;100.00
80558;BME280;69901;43.524;-5.636;2023-12-20T03:02:18;103343.38;;;11.85;100.00
80558;BME280;69901;43.524;-5.636;2023-12-20T03:04:44;103350.25;;;11.80;100.00
80558;BME280;69901;43.524;-5.636;2023-12-20T03:07:09;103354.88;;;11.80;100.00
80558;BME280;69901;43.524;-5.636;2023-12-20T03:09:35;103364.19;;;11.71;100.00
80558;BME280;69901;43.524;-5.636;2023-12-20T03:12:00;103349.75;;;11.62;100.00
80558;BME280;69901;43.524;-5.636;2023-12-20T03:14:26;103358.16;;;11.61;100.00
80558;BME280;69901;43.524;-5.636;2023-12-20T03:16:51;103356.44;;;11.60;100.00
80558;BME280;69901;43.524;-5.636;2023-12-20T03:19:20;103346.22;;;11.62;100.00
80558;BME280;69901;43.524;-5.636;2023-12-20T03:21:45;103359.41;;;11.73;100.00
80558;BME280;69901;43.524;-5.636;2023-12-20T03:24:11;103366.94;;;11.71;100.00
80558;BME280;69901;43.524;-5.636;2023-12-20T03:26:36;103363.22;;;11.64;100.00
80558;BME280;69901;43.524;-5.636;2023-12-20T03:29:02;103363.88;;;11.66;100.00
80558;BME280;69901;43.524;-5.636;2023-12-20T03:31:27;103357.38;;;11.67;100.00
80558;BME280;69901;43.524;-5.636;2023-12-20T03:33:53;103364.84;;;11.58;100.00
80558;BME280;69901;43.524;-5.636;2023-12-20T03:36:19;103366.34;;;11.61;100.00
80558;BME280;69901;43.524;-5.636;2023-12-20T03:38:45;103355.03;;;11.64;100.00
80558;BME280;69901;43.524;-5.636;2023-12-20T03:41:11;103356.84;;;11.57;100.00
80558;BME280;69901;43.524;-5.636;2023-12-20T03:43:36;103353.63;;;11.68;100.00
80558;BME280;69901;43.524;-5.636;2023-12-20T03:46:03;103363.53;;;11.69;100.00
80558;BME280;69901;43.524;-5.636;2023-12-20T03:48:29;103349.50;;;11.57;100.00
80558;BME280;69901;43.524;-5.636;2023-12-20T03:50:55;103353.97;;;11.73;100.00
80558;BME280;69901;43.524;-5.636;2023-12-20T03:53:20;103352.97;;;11.66;100.00
80558;BME280;69901;43.524;-5.636;2023-12-20T03:55:46;103244.16;;;11.56;100.00
80558;BME280;69901;43.524;-5.636;2023-12-20T04:00:36;66643.34;;;-141.58;100.00
80558;BME280;69901;43.524;-5.636;2023-12-20T04:03:02;66643.34;;;-141.58;100.00
80558;BME280;69901;43.524;-5.636;2023-12-20T04:05:28;66643.34;;;-141.58;100.00
80558;BME280;69901;43.524;-5.636;2023-12-20T04:07:53;66643.34;;;-141.58;100.00
80558;BME280;69901;43.524;-5.636;2023-12-20T04:10:18;66643.34;;;-141.58;100.00
80558;BME280;69901;43.524;-5.636;2023-12-20T04:24:52;101122.22;;;-0.31;nan
80558;BME280;69901;43.524;-5.636;2023-12-20T04:27:17;100867.66;;;-1.62;nan
80558;BME280;69901;43.524;-5.636;2023-12-20T04:29:43;66661.56;;;-141.58;100.00
80558;BME280;69901;43.524;-5.636;2023-12-20T04:32:08;101306.56;;;0.45;nan
80558;BME280;69901;43.524;-5.636;2023-12-20T04:34:34;101424.31;;;1.27;nan
80558;BME280;69901;43.524;-5.636;2023-12-20T04:36:59;101465.53;;;1.34;nan
80558;BME280;69901;43.524;-5.636;2023-12-20T04:39:26;101514.44;;;1.61;nan
80558;BME280;69901;43.524;-5.636;2023-12-20T04:41:52;102553.66;;;7.04;nan
80558;BME280;69901;43.524;-5.636;2023-12-20T04:44:18;101783.88;;;2.97;nan
80558;BME280;69901;43.524;-5.636;2023-12-20T04:46:43;102252.09;;;5.54;nan
80558;BME280;69901;43.524;-5.636;2023-12-20T04:49:09;102798.06;;;8.60;nan
80558;BME280;69901;43.524;-5.636;2023-12-20T04:51:35;102357.75;;;6.06;nan
80558;BME280;69901;43.524;-5.636;2023-12-20T04:54:01;102217.91;;;5.38;nan
80558;BME280;69901;43.524;-5.636;2023-12-20T04:56:27;102996.06;;;9.53;nan
80558;BME280;69901;43.524;-5.636;2023-12-20T04:58:52;102241.84;;;5.50;nan
80558;BME280;69901;43.524;-5.636;2023-12-20T05:01:18;102362.78;;;6.09;nan
80558;BME280;69901;43.524;-5.636;2023-12-20T05:03:43;103292.38;;;10.97;nan
80558;BME280;69901;43.524;-5.636;2023-12-20T05:06:12;103297.75;;;10.91;nan
80558;BME280;69901;43.524;-5.636;2023-12-20T05:08:38;103179.50;;;10.33;nan
80558;BME280;69901;43.524;-5.636;2023-12-20T05:11:04;103150.47;;;10.25;nan
80558;BME280;69901;43.524;-5.636;2023-12-20T05:13:30;102606.91;;;7.43;nan
80558;BME280;69901;43.524;-5.636;2023-12-20T05:15:55;102623.88;;;7.36;nan
80558;BME280;69901;43.524;-5.636;2023-12-20T05:18:21;102745.22;;;8.03;nan
80558;BME280;69901;43.524;-5.636;2023-12-20T05:20:48;102743.41;;;7.95;nan
80558;BME280;69901;43.524;-5.636;2023-12-20T05:23:14;103102.72;;;10.00;nan
80558;BME280;69901;43.524;-5.636;2023-12-20T05:25:40;103346.16;;;11.03;nan
80558;BME280;69901;43.524;-5.636;2023-12-20T05:28:05;103352.34;;;10.97;nan
80558;BME280;69901;43.524;-5.636;2023-12-20T05:30:31;103354.41;;;10.95;nan
80558;BME280;69901;43.524;-5.636;2023-12-20T05:32:56;103368.28;;;10.86;nan
80558;BME280;69901;43.524;-5.636;2023-12-20T05:35:22;103346.88;;;10.97;nan
80558;BME280;69901;43.524;-5.636;2023-12-20T05:37:49;103354.22;;;10.97;nan
80558;BME280;69901;43.524;-5.636;2023-12-20T05:40:14;103350.00;;;10.94;nan
80558;BME280;69901;43.524;-5.636;2023-12-20T05:42:40;103365.22;;;10.89;nan
80558;BME280;69901;43.524;-5.636;2023-12-20T05:45:05;103372.91;;;10.85;nan
80558;BME280;69901;43.524;-5.636;2023-12-20T05:47:31;103364.63;;;10.93;nan
80558;BME280;69901;43.524;-5.636;2023-12-20T05:49:57;103363.50;;;10.88;nan
80558;BME280;69901;43.524;-5.636;2023-12-20T05:52:22;103395.94;;;10.97;nan
80558;BME280;69901;43.524;-5.636;2023-12-20T05:54:48;103381.78;;;11.02;nan
80558;BME280;69901;43.524;-5.636;2023-12-20T05:57:13;103369.38;;;10.99;nan
80558;BME280;69901;43.524;-5.636;2023-12-20T05:59:39;103379.03;;;11.02;nan
80558;BME280;69901;43.524;-5.636;2023-12-20T06:02:04;103363.63;;;10.94;nan
80558;BME280;69901;43.524;-5.636;2023-12-20T06:04:30;103383.38;;;10.96;nan
80558;BME280;69901;43.524;-5.636;2023-12-20T06:06:56;103383.00;;;10.99;nan
80558;BME280;69901;43.524;-5.636;2023-12-20T06:09:21;103371.34;;;11.05;nan
80558;BME280;69901;43.524;-5.636;2023-12-20T06:11:47;103384.88;;;10.99;nan
80558;BME280;69901;43.524;-5.636;2023-12-20T06:14:12;103376.16;;;11.03;nan
80558;BME280;69901;43.524;-5.636;2023-12-20T06:16:38;103387.91;;;11.04;nan
80558;BME280;69901;43.524;-5.636;2023-12-20T06:19:03;103382.06;;;11.07;nan
80558;BME280;69901;43.524;-5.636;2023-12-20T06:21:30;103421.75;;;11.09;nan
80558;BME280;69901;43.524;-5.636;2023-12-20T06:23:55;103403.69;;;11.08;nan
80558;BME280;69901;43.524;-5.636;2023-12-20T06:26:21;103394.09;;;11.12;nan
80558;BME280;69901;43.524;-5.636;2023-12-20T06:28:46;103402.50;;;11.11;nan
80558;BME280;69901;43.524;-5.636;2023-12-20T06:31:12;103412.66;;;11.17;nan
80558;BME280;69901;43.524;-5.636;2023-12-20T06:33:38;103407.66;;;11.20;nan
80558;BME280;69901;43.524;-5.636;2023-12-20T06:36:06;103423.06;;;11.13;nan
80558;BME280;69901;43.524;-5.636;2023-12-20T06:38:31;103422.09;;;11.29;nan
80558;BME280;69901;43.524;-5.636;2023-12-20T06:40:57;103427.41;;;11.22;nan
80558;BME280;69901;43.524;-5.636;2023-12-20T06:43:23;103441.22;;;11.21;nan
80558;BME280;69901;43.524;-5.636;2023-12-20T06:45:49;103452.91;;;11.29;nan
80558;BME280;69901;43.524;-5.636;2023-12-20T06:48:14;103453.25;;;11.26;nan
80558;BME280;69901;43.524;-5.636;2023-12-20T06:50:40;103479.88;;;11.24;nan
80558;BME280;69901;43.524;-5.636;2023-12-20T06:53:06;103465.81;;;11.36;nan
80558;BME280;69901;43.524;-5.636;2023-12-20T06:55:35;103471.16;;;11.29;nan
80558;BME280;69901;43.524;-5.636;2023-12-20T06:58:03;103484.22;;;11.33;nan
80558;BME280;69901;43.524;-5.636;2023-12-20T07:00:29;103486.94;;;11.33;nan
80558;BME280;69901;43.524;-5.636;2023-12-20T07:02:55;103488.59;;;11.43;nan
80558;BME280;69901;43.524;-5.636;2023-12-20T07:05:20;103493.66;;;11.46;nan
80558;BME280;69901;43.524;-5.636;2023-12-20T07:07:47;103504.56;;;11.46;nan
80558;BME280;69901;43.524;-5.636;2023-12-20T07:10:13;103503.56;;;11.47;nan
80558;BME280;69901;43.524;-5.636;2023-12-20T07:12:38;103500.06;;;11.53;nan
80558;BME280;69901;43.524;-5.636;2023-12-20T07:15:04;103513.06;;;11.51;nan
80558;BME280;69901;43.524;-5.636;2023-12-20T07:17:31;103541.53;;;11.48;nan
80558;BME280;69901;43.524;-5.636;2023-12-20T07:19:58;103550.03;;;11.53;nan
80558;BME280;69901;43.524;-5.636;2023-12-20T07:22:24;103542.00;;;11.52;nan
80558;BME280;69901;43.524;-5.636;2023-12-20T07:24:49;103522.47;;;11.63;nan
80558;BME280;69901;43.524;-5.636;2023-12-20T07:27:17;103498.38;;;11.52;nan
80558;BME280;69901;43.524;-5.636;2023-12-20T07:29:43;103497.06;;;11.62;nan
80558;BME280;69901;43.524;-5.636;2023-12-20T07:32:08;103517.97;;;11.70;nan
80558;BME280;69901;43.524;-5.636;2023-12-20T07:34:34;103523.78;;;11.52;nan
80558;BME280;69901;43.524;-5.636;2023-12-20T07:36:59;103548.41;;;10.91;nan
80558;BME280;69901;43.524;-5.636;2023-12-20T07:39:24;103536.56;;;11.06;nan
80558;BME280;69901;43.524;-5.636;2023-12-20T07:41:50;103529.78;;;11.02;nan
80558;BME280;69901;43.524;-5.636;2023-12-20T07:44:15;103519.84;;;10.87;nan
80558;BME280;69901;43.524;-5.636;2023-12-20T07:46:41;103537.75;;;10.81;nan
80558;BME280;69901;43.524;-5.636;2023-12-20T07:49:06;103556.09;;;10.87;nan
80558;BME280;69901;43.524;-5.636;2023-12-20T07:51:33;103534.31;;;10.87;nan
80558;BME280;69901;43.524;-5.636;2023-12-20T07:53:59;103548.38;;;10.99;nan
80558;BME280;69901;43.524;-5.636;2023-12-20T07:56:24;103534.91;;;10.97;nan
80558;BME280;69901;43.524;-5.636;2023-12-20T07:58:50;103528.09;;;11.01;nan
80558;BME280;69901;43.524;-5.636;2023-12-20T08:01:16;103554.38;;;11.17;nan
80558;BME280;69901;43.524;-5.636;2023-12-20T08:03:42;103556.81;;;11.12;nan
80558;BME280;69901;43.524;-5.636;2023-12-20T08:06:08;103543.91;;;11.06;nan
80558;BME280;69901;43.524;-5.636;2023-12-20T08:08:33;103556.72;;;10.97;nan
80558;BME280;69901;43.524;-5.636;2023-12-20T08:10:59;103563.16;;;11.04;nan
80558;BME280;69901;43.524;-5.636;2023-12-20T08:13:26;103571.19;;;10.98;nan
80558;BME280;69901;43.524;-5.636;2023-12-20T08:15:52;103573.06;;;10.97;nan
80558;BME280;69901;43.524;-5.636;2023-12-20T08:18:18;103576.06;;;11.10;nan
80558;BME280;69901;43.524;-5.636;2023-12-20T08:20:44;103581.91;;;11.07;nan
80558;BME280;69901;43.524;-5.636;2023-12-20T08:23:09;103586.41;;;11.15;nan
80558;BME280;69901;43.524;-5.636;2023-12-20T08:25:35;103583.94;;;11.05;nan
80558;BME280;69901;43.524;-5.636;2023-12-20T08:28:04;103587.59;;;11.20;nan
80558;BME280;69901;43.524;-5.636;2023-12-20T08:30:29;103593.00;;;11.28;nan
80558;BME280;69901;43.524;-5.636;2023-12-20T08:32:56;103587.78;;;11.42;nan
80558;BME280;69901;43.524;-5.636;2023-12-20T08:35:21;103602.31;;;11.34;nan
80558;BME280;69901;43.524;-5.636;2023-12-20T08:37:47;103600.94;;;11.38;nan
80558;BME280;69901;43.524;-5.636;2023-12-20T08:40:13;103604.50;;;11.39;nan
80558;BME280;69901;43.524;-5.636;2023-12-20T08:42:39;103619.16;;;11.38;nan
80558;BME280;69901;43.524;-5.636;2023-12-20T08:45:05;103604.47;;;11.16;nan
80558;BME280;69901;43.524;-5.636;2023-12-20T08:47:30;103611.16;;;11.13;nan
80558;BME280;69901;43.524;-5.636;2023-12-20T08:49:55;103605.16;;;11.18;nan
80558;BME280;69901;43.524;-5.636;2023-12-20T08:52:25;103612.09;;;11.28;nan
80558;BME280;69901;43.524;-5.636;2023-12-20T08:54:53;103610.25;;;11.21;nan
80558;BME280;69901;43.524;-5.636;2023-12-20T08:57:22;103605.47;;;11.23;nan
80558;BME280;69901;43.524;-5.636;2023-12-20T08:59:49;103615.72;;;11.21;nan
80558;BME280;69901;43.524;-5.636;2023-12-20T09:02:14;103629.66;;;11.49;nan
80558;BME280;69901;43.524;-5.636;2023-12-20T09:04:40;103637.13;;;11.32;nan
80558;BME280;69901;43.524;-5.636;2023-12-20T09:07:06;103639.09;;;11.38;nan
80558;BME280;69901;43.524;-5.636;2023-12-20T09:09:38;103643.13;;;11.50;nan
80558;BME280;69901;43.524;-5.636;2023-12-20T09:12:05;103651.34;;;11.42;nan
80558;BME280;69901;43.524;-5.636;2023-12-20T09:14:36;103651.00;;;11.68;nan
80558;BME280;69901;43.524;-5.636;2023-12-20T09:17:10;103656.03;;;11.87;nan
80558;BME280;69901;43.524;-5.636;2023-12-20T09:19:37;103648.91;;;11.78;nan
80558;BME280;69901;43.524;-5.636;2023-12-20T09:22:03;103656.28;;;12.15;nan
80558;BME280;69901;43.524;-5.636;2023-12-20T09:24:29;103667.38;;;12.13;nan
80558;BME280;69901;43.524;-5.636;2023-12-20T09:26:55;103669.66;;;12.24;nan
80558;BME280;69901;43.524;-5.636;2023-12-20T09:29:20;103694.56;;;12.07;nan
80558;BME280;69901;43.524;-5.636;2023-12-20T09:31:46;103672.25;;;12.03;nan
80558;BME280;69901;43.524;-5.636;2023-12-20T09:34:11;103666.78;;;11.58;nan
80558;BME280;69901;43.524;-5.636;2023-12-20T09:36:37;103697.78;;;10.87;nan
80558;BME280;69901;43.524;-5.636;2023-12-20T09:39:05;103703.44;;;10.77;nan
80558;BME280;69901;43.524;-5.636;2023-12-20T09:41:35;103713.97;;;10.89;nan
80558;BME280;69901;43.524;-5.636;2023-12-20T09:44:03;103714.72;;;11.21;nan
80558;BME280;69901;43.524;-5.636;2023-12-20T09:46:28;103716.16;;;11.40;nan
80558;BME280;69901;43.524;-5.636;2023-12-20T09:48:59;103711.47;;;11.49;nan
80558;BME280;69901;43.524;-5.636;2023-12-20T09:51:27;103704.47;;;11.54;nan
80558;BME280;69901;43.524;-5.636;2023-12-20T09:53:54;103693.59;;;12.00;nan
80558;BME280;69901;43.524;-5.636;2023-12-20T09:56:23;103700.38;;;12.26;nan
80558;BME280;69901;43.524;-5.636;2023-12-20T09:58:49;103702.28;;;12.41;nan
80558;BME280;69901;43.524;-5.636;2023-12-20T10:01:15;103699.34;;;12.27;nan
80558;BME280;69901;43.524;-5.636;2023-12-20T10:03:41;103703.75;;;12.28;nan
80558;BME280;69901;43.524;-5.636;2023-12-20T10:06:07;103700.66;;;12.32;nan
80558;BME280;69901;43.524;-5.636;2023-12-20T10:08:33;103699.38;;;12.42;nan
80558;BME280;69901;43.524;-5.636;2023-12-20T10:10:58;103698.91;;;12.68;nan
80558;BME280;69901;43.524;-5.636;2023-12-20T10:13:28;103705.63;;;12.95;nan
80558;BME280;69901;43.524;-5.636;2023-12-20T10:15:55;103709.19;;;13.39;nan
80558;BME280;69901;43.524;-5.636;2023-12-20T10:18:20;103702.72;;;13.61;nan
80558;BME280;69901;43.524;-5.636;2023-12-20T10:20:46;103706.44;;;13.54;nan
80558;BME280;69901;43.524;-5.636;2023-12-20T10:23:12;103712.09;;;13.73;nan
80558;BME280;69901;43.524;-5.636;2023-12-20T10:25:39;103712.97;;;13.74;nan
80558;BME280;69901;43.524;-5.636;2023-12-20T10:28:13;103711.94;;;13.75;nan
80558;BME280;69901;43.524;-5.636;2023-12-20T10:30:40;103705.88;;;13.80;nan
80558;BME280;69901;43.524;-5.636;2023-12-20T10:33:07;103710.31;;;14.02;nan
80558;BME280;69901;43.524;-5.636;2023-12-20T10:35:37;103713.91;;;14.02;nan
80558;BME280;69901;43.524;-5.636;2023-12-20T10:38:04;103712.09;;;14.09;nan
80558;BME280;69901;43.524;-5.636;2023-12-20T10:40:31;103700.06;;;13.89;nan
80558;BME280;69901;43.524;-5.636;2023-12-20T10:42:58;103690.34;;;14.08;nan
80558;BME280;69901;43.524;-5.636;2023-12-20T10:45:24;103686.66;;;13.94;nan
80558;BME280;69901;43.524;-5.636;2023-12-20T10:47:50;103678.38;;;13.88;nan
80558;BME280;69901;43.524;-5.636;2023-12-20T10:50:18;103670.53;;;14.06;nan
80558;BME280;69901;43.524;-5.636;2023-12-20T10:52:45;103676.47;;;13.88;nan
80558;BME280;69901;43.524;-5.636;2023-12-20T10:55:12;103687.41;;;13.88;nan
80558;BME280;69901;43.524;-5.636;2023-12-20T10:57:38;103673.72;;;13.67;nan
80558;BME280;69901;43.524;-5.636;2023-12-20T11:00:06;103677.63;;;13.37;nan
80558;BME280;69901;43.524;-5.636;2023-12-20T11:02:39;103676.38;;;13.39;nan
80558;BME280;69901;43.524;-5.636;2023-12-20T11:07:43;103675.25;;;13.04;nan
80558;BME280;69901;43.524;-5.636;2023-12-20T11:12:56;103668.38;;;12.64;nan
80558;BME280;69901;43.524;-5.636;2023-12-20T11:15:24;103670.13;;;12.28;nan
80558;BME280;69901;43.524;-5.636;2023-12-20T11:17:57;103666.47;;;12.36;nan
80558;BME280;69901;43.524;-5.636;2023-12-20T11:20:23;103659.16;;;12.51;nan
80558;BME280;69901;43.524;-5.636;2023-12-20T11:22:54;103657.38;;;12.58;nan
80558;BME280;69901;43.524;-5.636;2023-12-20T11:25:20;103652.94;;;13.15;nan
80558;BME280;69901;43.524;-5.636;2023-12-20T11:28:11;103657.91;;;13.62;nan
80558;BME280;69901;43.524;-5.636;2023-12-20T11:30:46;103637.22;;;14.02;nan
80558;BME280;69901;43.524;-5.636;2023-12-20T11:33:15;103628.75;;;14.25;nan
80558;BME280;69901;43.524;-5.636;2023-12-20T11:35:45;103644.06;;;13.92;nan
80558;BME280;69901;43.524;-5.636;2023-12-20T11:38:11;103633.47;;;13.61;nan
80558;BME280;69901;43.524;-5.636;2023-12-20T11:40:37;103634.88;;;13.36;nan
80558;BME280;69901;43.524;-5.636;2023-12-20T11:43:03;103650.31;;;12.93;nan
80558;BME280;69901;43.524;-5.636;2023-12-20T11:45:30;103643.38;;;12.09;nan
80558;BME280;69901;43.524;-5.636;2023-12-20T11:47:57;103669.78;;;11.94;nan
80558;BME280;69901;43.524;-5.636;2023-12-20T11:50:25;103651.25;;;11.58;nan
80558;BME280;69901;43.524;-5.636;2023-12-20T11:52:52;103656.19;;;11.55;nan
80558;BME280;69901;43.524;-5.636;2023-12-20T11:55:18;103651.84;;;11.46;nan
80558;BME280;69901;43.524;-5.636;2023-12-20T11:57:44;103644.69;;;11.45;nan
80558;BME280;69901;43.524;-5.636;2023-12-20T12:00:10;103640.78;;;11.47;nan
80558;BME280;69901;43.524;-5.636;2023-12-20T12:02:36;103639.09;;;11.38;nan
80558;BME280;69901;43.524;-5.636;2023-12-20T12:05:01;103597.59;;;11.28;nan
80558;BME280;69901;43.524;-5.636;2023-12-20T12:07:27;103598.44;;;11.28;nan
80558;BME280;69901;43.524;-5.636;2023-12-20T12:09:53;103596.50;;;11.37;nan
80558;BME280;69901;43.524;-5.636;2023-12-20T12:12:19;103593.59;;;11.61;nan
80558;BME280;69901;43.524;-5.636;2023-12-20T12:14:45;103572.81;;;11.83;nan
80558;BME280;69901;43.524;-5.636;2023-12-20T12:17:11;103557.81;;;12.16;nan
80558;BME280;69901;43.524;-5.636;2023-12-20T12:19:38;103546.50;;;12.34;nan
80558;BME280;69901;43.524;-5.636;2023-12-20T12:22:08;103544.78;;;12.48;nan
80558;BME280;69901;43.524;-5.636;2023-12-20T12:24:38;103545.97;;;12.89;nan
80558;BME280;69901;43.524;-5.636;2023-12-20T12:27:06;103554.00;;;13.12;nan
80558;BME280;69901;43.524;-5.636;2023-12-20T12:29:32;103552.41;;;13.17;nan
80558;BME280;69901;43.524;-5.636;2023-12-20T12:31:58;103544.91;;;13.26;nan
80558;BME280;69901;43.524;-5.636;2023-12-20T12:34:23;103523.41;;;13.44;nan
80558;BME280;69901;43.524;-5.636;2023-12-20T12:36:49;103541.06;;;13.20;nan
80558;BME280;69901;43.524;-5.636;2023-12-20T12:39:16;103553.28;;;13.67;nan
80558;BME280;69901;43.524;-5.636;2023-12-20T12:41:42;103560.56;;;14.37;nan
80558;BME280;69901;43.524;-5.636;2023-12-20T12:44:08;103557.28;;;14.54;nan
80558;BME280;69901;43.524;-5.636;2023-12-20T12:46:34;103562.09;;;14.18;nan
80558;BME280;69901;43.524;-5.636;2023-12-20T12:49:00;103549.31;;;14.59;nan
80558;BME280;69901;43.524;-5.636;2023-12-20T12:51:25;103539.84;;;14.62;nan
80558;BME280;69901;43.524;-5.636;2023-12-20T12:53:51;103526.56;;;13.97;nan
80558;BME280;69901;43.524;-5.636;2023-12-20T12:56:18;103537.38;;;14.05;nan
80558;BME280;69901;43.524;-5.636;2023-12-20T12:58:44;103544.78;;;13.13;nan
80558;BME280;69901;43.524;-5.636;2023-12-20T13:01:09;103535.06;;;12.74;nan
80558;BME280;69901;43.524;-5.636;2023-12-20T13:03:35;103544.03;;;12.54;nan